sensor_id;sensor_type;location;lat;lon;timestamp;pressure;altitude;pressure_sealevel;temperature;humidity
4528;BME280;62320;51.520;6.818;2024-03-22T00:09:28;101727.44;;;11.53;100.00
4528;BME280;62320;51.520;6.818;2024-03-22T00:19:28;101724.06;;;11.61;100.00
4528;BME280;62320;51.520;6.818;2024-03-22T00:29:29;101693.84;;;11.60;100.00
4528;BME280;62320;51.520;6.818;2024-03-22T00:39:29;101688.63;;;11.59;100.00
4528;BME280;62320;51.520;6.818;2024-03-22T00:49:30;101668.81;;;11.61;100.00
4528;BME280;62320;51.520;6.818;2024-03-22T00:59:30;101666.19;;;11.58;100.00
4528;BME280;62320;51.520;6.818;2024-03-22T01:09:31;101655.00;;;11.60;100.00
4528;BME280;62320;51.520;6.818;2024-03-22T01:19:33;101645.47;;;11.58;100.00
4528;BME280;62320;51.520;6.818;2024-03-22T01:29:33;101619.56;;;11.59;100.00
4528;BME280;62320;51.520;6.818;2024-03-22T01:39:34;101597.13;;;11.61;100.00
4528;BME280;62320;51.520;6.818;2024-03-22T01:49:35;101582.47;;;11.63;100.00
4528;BME280;62320;51.520;6.818;2024-03-22T01:59:35;101574.69;;;11.63;100.00
4528;BME280;62320;51.520;6.818;2024-03-22T02:09:36;101579.03;;;11.64;100.00
4528;BME280;62320;51.520;6.818;2024-03-22T02:19:37;101560.91;;;11.63;100.00
4528;BME280;62320;51.520;6.818;2024-03-22T02:29:38;101552.28;;;11.65;100.00
4528;BME280;62320;51.520;6.818;2024-03-22T02:39:38;101537.66;;;11.67;100.00
4528;BME280;62320;51.520;6.818;2024-03-22T02:49:40;101522.13;;;11.69;100.00
4528;BME280;62320;51.520;6.818;2024-03-22T02:59:40;101500.47;;;11.67;100.00
4528;BME280;62320;51.520;6.818;2024-03-22T03:09:41;101503.03;;;11.64;100.00
4528;BME280;62320;51.520;6.818;2024-03-22T03:19:42;101487.47;;;11.56;100.00
4528;BME280;62320;51.520;6.818;2024-03-22T03:29:43;101474.47;;;11.53;100.00
4528;BME280;62320;51.520;6.818;2024-03-22T03:39:43;101453.69;;;11.44;100.00
4528;BME280;62320;51.520;6.818;2024-03-22T03:49:47;101441.59;;;11.43;100.00
4528;BME280;62320;51.520;6.818;2024-03-22T03:59:48;101414.84;;;11.42;100.00
4528;BME280;62320;51.520;6.818;2024-03-22T04:09:48;101395.81;;;11.39;100.00
4528;BME280;62320;51.520;6.818;2024-03-22T04:19:49;101390.53;;;11.27;100.00
4528;BME280;62320;51.520;6.818;2024-03-22T04:29:50;101375.03;;;11.31;100.00
4528;BME280;62320;51.520;6.818;2024-03-22T04:39:50;101373.31;;;11.33;100.00
4528;BME280;62320;51.520;6.818;2024-03-22T04:49:51;101360.38;;;11.32;100.00
4528;BME280;62320;51.520;6.818;2024-03-22T04:59:51;101350.94;;;11.41;100.00
4528;BME280;62320;51.520;6.818;2024-03-22T05:09:52;101350.91;;;11.34;100.00
4528;BME280;62320;51.520;6.818;2024-03-22T05:19:52;101361.28;;;11.37;100.00
4528;BME280;62320;51.520;6.818;2024-03-22T05:29:53;101356.09;;;11.38;100.00
4528;BME280;62320;51.520;6.818;2024-03-22T05:39:54;101345.78;;;11.43;100.00
4528;BME280;62320;51.520;6.818;2024-03-22T05:49:55;101329.44;;;11.53;100.00
4528;BME280;62320;51.520;6.818;2024-03-22T05:59:55;101329.47;;;11.56;100.00
4528;BME280;62320;51.520;6.818;2024-03-22T06:09:56;101330.31;;;11.60;100.00
4528;BME280;62320;51.520;6.818;2024-03-22T06:19:56;101319.13;;;11.67;100.00
4528;BME280;62320;51.520;6.818;2024-03-22T06:29:57;101320.94;;;11.81;100.00
4528;BME280;62320;51.520;6.818;2024-03-22T06:39:57;101311.50;;;11.89;100.00
4528;BME280;62320;51.520;6.818;2024-03-22T06:49:59;101302.03;;;11.99;100.00
4528;BME280;62320;51.520;6.818;2024-03-22T06:59:59;101308.94;;;12.13;100.00
4528;BME280;62320;51.520;6.818;2024-03-22T07:10:00;101319.34;;;12.27;100.00
4528;BME280;62320;51.520;6.818;2024-03-22T07:20:00;101322.84;;;12.43;100.00
4528;BME280;62320;51.520;6.818;2024-03-22T07:30:02;101309.88;;;12.56;100.00
4528;BME280;62320;51.520;6.818;2024-03-22T07:40:03;101299.53;;;12.71;100.00
4528;BME280;62320;51.520;6.818;2024-03-22T07:50:06;101297.75;;;12.84;100.00
4528;BME280;62320;51.520;6.818;2024-03-22T08:00:07;101296.91;;;12.94;100.00
4528;BME280;62320;51.520;6.818;2024-03-22T08:10:08;101301.22;;;13.03;100.00
4528;BME280;62320;51.520;6.818;2024-03-22T08:20:09;101291.72;;;13.08;100.00
4528;BME280;62320;51.520;6.818;2024-03-22T08:30:10;101290.84;;;13.16;100.00
4528;BME280;62320;51.520;6.818;2024-03-22T08:40:11;101281.28;;;13.26;100.00
4528;BME280;62320;51.520;6.818;2024-03-22T08:50:12;101280.41;;;13.31;100.00
4528;BME280;62320;51.520;6.818;2024-03-22T09:00:13;101282.94;;;13.45;100.00
4528;BME280;62320;51.520;6.818;2024-03-22T09:10:14;101260.41;;;13.57;100.00
4528;BME280;62320;51.520;6.818;2024-03-22T09:20:14;101261.16;;;13.79;100.00
4528;BME280;62320;51.520;6.818;2024-03-22T09:30:15;101249.84;;;13.88;100.00
4528;BME280;62320;51.520;6.818;2024-03-22T09:40:15;101244.59;;;13.95;100.00
4528;BME280;62320;51.520;6.818;2024-03-22T09:50:16;101229.75;;;14.12;100.00
4528;BME280;62320;51.520;6.818;2024-03-22T10:00:20;101227.94;;;14.20;100.00
4528;BME280;62320;51.520;6.818;2024-03-22T10:10:22;101211.34;;;14.38;100.00
4528;BME280;62320;51.520;6.818;2024-03-22T10:20:23;101199.19;;;14.45;100.00
4528;BME280;62320;51.520;6.818;2024-03-22T10:30:24;101190.41;;;14.52;100.00
4528;BME280;62320;51.520;6.818;2024-03-22T10:40:25;101185.19;;;14.58;100.00
4528;BME280;62320;51.520;6.818;2024-03-22T10:50:27;101178.16;;;14.67;100.00
4528;BME280;62320;51.520;6.818;2024-03-22T11:00:31;101168.56;;;14.71;100.00
4528;BME280;62320;51.520;6.818;2024-03-22T11:10:35;101164.25;;;14.67;100.00
4528;BME280;62320;51.520;6.818;2024-03-22T11:20:36;101175.53;;;14.66;100.00
4528;BME280;62320;51.520;6.818;2024-03-22T11:30:37;101169.53;;;14.62;100.00
4528;BME280;62320;51.520;6.818;2024-03-22T11:40:38;101159.25;;;14.46;100.00
4528;BME280;62320;51.520;6.818;2024-03-22T11:50:38;101148.13;;;14.33;100.00
4528;BME280;62320;51.520;6.818;2024-03-22T12:00:39;101153.38;;;14.22;100.00
4528;BME280;62320;51.520;6.818;2024-03-22T12:10:40;101150.94;;;14.06;100.00
4528;BME280;62320;51.520;6.818;2024-03-22T12:20:40;101163.91;;;14.07;100.00
4528;BME280;62320;51.520;6.818;2024-03-22T12:30:41;101152.72;;;13.95;100.00
4528;BME280;62320;51.520;6.818;2024-03-22T12:40:41;101140.66;;;13.86;100.00
4528;BME280;62320;51.520;6.818;2024-03-22T12:50:42;101116.53;;;13.68;100.00
4528;BME280;62320;51.520;6.818;2024-03-22T13:00:42;101102.81;;;13.53;100.00
4528;BME280;62320;51.520;6.818;2024-03-22T13:10:43;101095.91;;;13.45;100.00
4528;BME280;62320;51.520;6.818;2024-03-22T13:20:46;101088.19;;;13.34;100.00
4528;BME280;62320;51.520;6.818;2024-03-22T13:30:48;101079.56;;;13.32;100.00
4528;BME280;62320;51.520;6.818;2024-03-22T13:40:53;101062.25;;;13.27;100.00
4528;BME280;62320;51.520;6.818;2024-03-22T13:50:54;101043.22;;;13.25;100.00
4528;BME280;62320;51.520;6.818;2024-03-22T14:00:55;101034.63;;;13.18;100.00
4528;BME280;62320;51.520;6.818;2024-03-22T14:10:56;101023.38;;;13.18;100.00
4528;BME280;62320;51.520;6.818;2024-03-22T14:20:56;101025.16;;;13.07;100.00
4528;BME280;62320;51.520;6.818;2024-03-22T14:30:57;101007.88;;;13.01;100.00
4528;BME280;62320;51.520;6.818;2024-03-22T14:40:58;101009.69;;;12.90;100.00
4528;BME280;62320;51.520;6.818;2024-03-22T14:50:59;101004.50;;;12.84;100.00
4528;BME280;62320;51.520;6.818;2024-03-22T15:01:01;100986.38;;;12.75;100.00
4528;BME280;62320;51.520;6.818;2024-03-22T15:11:02;100956.19;;;12.66;100.00
4528;BME280;62320;51.520;6.818;2024-03-22T15:21:03;100953.66;;;12.56;100.00
4528;BME280;62320;51.520;6.818;2024-03-22T15:31:04;100964.88;;;12.58;100.00
4528;BME280;62320;51.520;6.818;2024-03-22T15:41:04;100932.88;;;12.54;100.00
4528;BME280;62320;51.520;6.818;2024-03-22T15:51:05;100940.72;;;12.48;100.00
4528;BME280;62320;51.520;6.818;2024-03-22T16:01:05;100943.34;;;12.36;100.00
4528;BME280;62320;51.520;6.818;2024-03-22T16:11:06;100932.16;;;12.30;100.00
4528;BME280;62320;51.520;6.818;2024-03-22T16:21:06;100903.66;;;12.21;100.00
4528;BME280;62320;51.520;6.818;2024-03-22T16:31:07;100901.09;;;12.16;100.00
4528;BME280;62320;51.520;6.818;2024-03-22T16:41:07;100887.31;;;12.05;100.00
4528;BME280;62320;51.520;6.818;2024-03-22T16:51:08;100880.44;;;11.98;100.00
4528;BME280;62320;51.520;6.818;2024-03-22T17:01:08;100873.56;;;11.89;100.00
4528;BME280;62320;51.520;6.818;2024-03-22T17:11:09;100874.47;;;11.81;100.00
4528;BME280;62320;51.520;6.818;2024-03-22T17:21:09;100881.38;;;11.76;100.00
4528;BME280;62320;51.520;6.818;2024-03-22T17:31:11;100875.38;;;11.39;100.00
4528;BME280;62320;51.520;6.818;2024-03-22T17:41:12;100875.38;;;11.36;100.00
4528;BME280;62320;51.520;6.818;2024-03-22T17:51:12;100888.38;;;11.15;100.00
4528;BME280;62320;51.520;6.818;2024-03-22T18:01:13;100874.56;;;11.07;100.00
4528;BME280;62320;51.520;6.818;2024-03-22T18:11:15;100872.81;;;11.00;100.00
4528;BME280;62320;51.520;6.818;2024-03-22T18:21:15;100882.31;;;10.93;100.00
4528;BME280;62320;51.520;6.818;2024-03-22T18:31:16;100877.13;;;10.84;100.00
4528;BME280;62320;51.520;6.818;2024-03-22T18:41:18;100866.78;;;10.80;100.00
4528;BME280;62320;51.520;6.818;2024-03-22T18:51:18;100862.47;;;10.75;100.00
4528;BME280;62320;51.520;6.818;2024-03-22T19:01:20;100856.44;;;10.73;100.00
4528;BME280;62320;51.520;6.818;2024-03-22T19:11:20;100848.69;;;10.67;100.00
4528;BME280;62320;51.520;6.818;2024-03-22T19:21:21;100835.75;;;10.60;100.00
4528;BME280;62320;51.520;6.818;2024-03-22T19:31:23;100827.97;;;10.57;100.00
4528;BME280;62320;51.520;6.818;2024-03-22T19:41:23;100815.91;;;10.50;100.00
4528;BME280;62320;51.520;6.818;2024-03-22T19:51:24;100814.19;;;10.46;100.00
4528;BME280;62320;51.520;6.818;2024-03-22T20:01:25;100802.13;;;10.37;100.00
4528;BME280;62320;51.520;6.818;2024-03-22T20:11:27;100792.66;;;10.33;100.00
4528;BME280;62320;51.520;6.818;2024-03-22T20:21:27;100803.00;;;10.38;100.00
4528;BME280;62320;51.520;6.818;2024-03-22T20:31:28;100786.59;;;10.28;100.00
